createdAt,value
2023-03-04T00:01:16.903Z,5.43
2023-03-04T00:03:51.002Z,5.49
2023-03-04T00:06:29.986Z,5.48
2023-03-04T00:09:04.943Z,5.38
2023-03-04T00:11:56.130Z,5.54
2023-03-04T00:14:30.335Z,5.54
2023-03-04T00:17:14.244Z,5.60
2023-03-04T00:19:52.864Z,5.54
2023-03-04T00:22:55.341Z,5.56
2023-03-04T00:25:32.778Z,5.53
2023-03-04T00:28:30.581Z,5.45
2023-03-04T00:31:25.584Z,5.50
2023-03-04T00:33:55.649Z,5.73
2023-03-04T00:37:04.647Z,5.80
2023-03-04T00:39:35.834Z,5.63
2023-03-04T00:42:15.231Z,5.73
2023-03-04T00:44:52.325Z,5.75
2023-03-04T00:47:39.509Z,5.67
2023-03-04T00:50:15.978Z,5.66
2023-03-04T00:52:50.474Z,5.77
2023-03-04T00:55:40.019Z,5.78
2023-03-04T00:58:29.582Z,5.71
2023-03-04T01:01:21.648Z,5.67
2023-03-04T01:03:57.557Z,5.65
2023-03-04T01:06:28.684Z,5.62
2023-03-04T01:08:59.741Z,5.71
2023-03-04T01:11:38.162Z,5.77
2023-03-04T01:14:23.582Z,5.62
2023-03-04T01:17:03.743Z,5.75
2023-03-04T01:20:22.751Z,5.67
2023-03-04T01:22:52.594Z,5.70
2023-03-04T01:25:28.124Z,5.60
2023-03-04T01:28:00.290Z,5.81
2023-03-04T01:30:39.623Z,5.79
2023-03-04T01:33:10.154Z,5.57
2023-03-04T01:35:44.024Z,5.70
2023-03-04T01:38:25.161Z,5.80
2023-03-04T01:40:56.516Z,5.86
2023-03-04T01:43:30.115Z,5.92
2023-03-04T01:46:08.884Z,5.78
2023-03-04T01:48:58.309Z,5.73
2023-03-04T01:52:02.518Z,5.75
2023-03-04T01:54:53.256Z,5.76
2023-03-04T01:57:31.066Z,5.73
2023-03-04T02:00:21.329Z,5.68
2023-03-04T02:03:14.491Z,5.71
2023-03-04T02:06:05.359Z,5.69
2023-03-04T02:08:56.925Z,5.67
2023-03-04T02:12:03.485Z,5.63
2023-03-04T02:14:35.330Z,5.48
2023-03-04T02:17:14.120Z,5.63
2023-03-04T02:20:42.398Z,5.69
2023-03-04T02:23:34.052Z,5.79
2023-03-04T02:26:28.086Z,5.66
2023-03-04T02:29:20.159Z,5.62
2023-03-04T02:32:02.432Z,5.82
2023-03-04T02:34:48.265Z,5.56
2023-03-04T02:38:08.378Z,5.61
2023-03-04T02:40:45.210Z,5.63
2023-03-04T02:43:39.330Z,5.68
2023-03-04T02:46:34.279Z,5.70
2023-03-04T02:49:37.646Z,5.66
2023-03-04T02:52:28.297Z,5.73
2023-03-04T02:55:05.801Z,5.80
2023-03-04T02:58:08.472Z,5.81
2023-03-04T03:01:02.359Z,6.02
2023-03-04T03:03:51.928Z,5.88
2023-03-04T03:06:39.236Z,5.92
2023-03-04T03:09:36.785Z,5.94
2023-03-04T03:12:09.742Z,6.04
2023-03-04T03:14:41.665Z,5.98
2023-03-04T03:17:34.208Z,5.99
2023-03-04T03:20:05.646Z,6.06
2023-03-04T03:22:47.041Z,6.06
2023-03-04T03:25:28.567Z,5.98
2023-03-04T03:28:29.348Z,6.01
2023-03-04T03:31:58.631Z,5.93
2023-03-04T03:35:15.371Z,6.12
2023-03-04T03:38:01.607Z,6.15
2023-03-04T03:41:09.643Z,6.33
2023-03-04T03:43:45.569Z,6.39
2023-03-04T03:47:03.088Z,6.39
2023-03-04T03:50:01.517Z,6.26
2023-03-04T03:52:46.659Z,6.22
2023-03-04T03:55:35.452Z,6.50
2023-03-04T03:58:28.446Z,6.43
2023-03-04T04:01:31.853Z,6.25
2023-03-04T04:04:09.686Z,6.10
2023-03-04T04:07:07.224Z,6.29
2023-03-04T04:09:38.169Z,6.24
2023-03-04T04:12:17.594Z,6.38
2023-03-04T04:15:27.019Z,6.15
2023-03-04T04:17:59.582Z,6.24
2023-03-04T04:20:47.182Z,6.27
2023-03-04T04:24:15.465Z,6.26
2023-03-04T04:27:08.143Z,6.32
2023-03-04T04:30:20.225Z,6.12
2023-03-04T04:33:32.879Z,6.08
2023-03-04T04:36:28.954Z,6.07
2023-03-04T04:39:02.065Z,6.29
2023-03-04T04:42:12.581Z,6.56
2023-03-04T04:45:25.676Z,6.26
2023-03-04T04:48:22.750Z,6.13
2023-03-04T04:51:06.219Z,6.21
2023-03-04T04:54:03.758Z,6.35
2023-03-04T04:56:59.911Z,6.35
2023-03-04T04:59:43.144Z,6.49
2023-03-04T05:02:37.680Z,6.28
2023-03-04T05:05:38.478Z,6.59
2023-03-04T05:08:26.560Z,6.21
2023-03-04T05:11:22.078Z,6.33
2023-03-04T05:14:36.068Z,6.41
2023-03-04T05:17:35.726Z,6.10
2023-03-04T05:20:18.306Z,6.21
2023-03-04T05:23:33.541Z,6.18
2023-03-04T05:26:09.214Z,6.09
2023-03-04T05:29:06.601Z,6.36
2023-03-04T05:31:45.163Z,6.27
2023-03-04T05:34:39.335Z,6.22
2023-03-04T05:37:13.929Z,6.19
2023-03-04T05:40:43.044Z,6.09
2023-03-04T05:43:19.634Z,6.50
2023-03-04T05:46:38.452Z,6.38
2023-03-04T05:49:13.303Z,6.46
2023-03-04T05:51:54.757Z,6.52
2023-03-04T05:54:51.827Z,6.44
2023-03-04T05:57:32.387Z,6.27
2023-03-04T06:00:12.989Z,6.36
2023-03-04T06:02:46.624Z,6.35
2023-03-04T06:05:19.921Z,6.51
2023-03-04T06:07:54.187Z,6.54
2023-03-04T06:10:45.143Z,6.43
2023-03-04T06:13:17.832Z,6.60
2023-03-04T06:15:50.566Z,6.78
2023-03-04T06:18:31.139Z,6.92
2023-03-04T06:21:07.807Z,6.64
2023-03-04T06:24:06.476Z,6.67
2023-03-04T06:26:45.694Z,6.62
2023-03-04T06:29:37.011Z,6.54
2023-03-04T06:32:08.758Z,6.70
2023-03-04T06:34:39.302Z,6.46
2023-03-04T06:37:09.835Z,6.63
2023-03-04T06:39:43.969Z,6.67
2023-03-04T06:42:41.915Z,6.84
2023-03-04T06:45:23.797Z,6.65
2023-03-04T06:47:54.697Z,6.54
2023-03-04T06:50:31.842Z,6.69
2023-03-04T06:53:21.147Z,6.67
2023-03-04T06:55:52.043Z,6.57
2023-03-04T06:58:34.048Z,6.72
2023-03-04T07:01:17.411Z,6.73
2023-03-04T07:03:50.620Z,6.84
2023-03-04T07:06:23.846Z,6.91
2023-03-04T07:08:58.724Z,6.65
2023-03-04T07:11:50.029Z,6.65
2023-03-04T07:14:25.460Z,6.69
2023-03-04T07:17:15.091Z,6.65
2023-03-04T07:20:07.868Z,6.71
2023-03-04T07:22:59.059Z,6.87
2023-03-04T07:25:50.766Z,6.80
2023-03-04T07:28:43.128Z,6.82
2023-03-04T07:31:28.203Z,6.96
2023-03-04T07:34:08.579Z,6.94
2023-03-04T07:37:16.803Z,6.79
2023-03-04T07:39:48.520Z,6.99
2023-03-04T07:42:31.996Z,7.08
2023-03-04T07:45:10.887Z,7.04
2023-03-04T07:48:04.549Z,7.13
2023-03-04T07:50:37.757Z,7.12
2023-03-04T07:53:10.674Z,7.33
2023-03-04T07:55:47.949Z,7.20
2023-03-04T07:58:28.310Z,7.23
2023-03-04T08:01:23.051Z,7.33
2023-03-04T08:04:33.860Z,7.19
2023-03-04T08:07:12.235Z,7.11
2023-03-04T08:09:50.693Z,7.17
2023-03-04T08:12:32.009Z,7.31
2023-03-04T08:15:13.595Z,7.23
2023-03-04T08:18:11.281Z,7.11
2023-03-04T08:20:49.292Z,7.14
2023-03-04T08:23:26.324Z,7.17
2023-03-04T08:26:29.206Z,7.45
2023-03-04T08:29:11.957Z,7.64
2023-03-04T08:31:58.238Z,7.62
2023-03-04T08:34:54.934Z,7.44
2023-03-04T08:37:38.778Z,7.56
2023-03-04T08:40:56.201Z,7.55
2023-03-04T08:43:50.440Z,7.74
2023-03-04T08:47:07.995Z,7.84
2023-03-04T08:49:42.010Z,7.94
2023-03-04T08:52:29.815Z,7.76
2023-03-04T08:55:22.229Z,7.66
2023-03-04T08:58:17.623Z,7.58
2023-03-04T09:01:31.290Z,7.59
2023-03-04T09:04:31.574Z,7.62
2023-03-04T09:07:43.507Z,7.75
2023-03-04T09:10:43.698Z,7.90
2023-03-04T09:13:37.575Z,8.07
2023-03-04T09:17:35.145Z,7.97
2023-03-04T09:20:58.517Z,8.00
2023-03-04T09:24:41.869Z,8.02
2023-03-04T09:27:56.977Z,8.06
2023-03-04T09:31:52.465Z,7.89
2023-03-04T09:36:32.650Z,7.88
2023-03-04T09:44:31.651Z,8.18
2023-03-04T09:56:29.779Z,8.17
2023-03-04T10:00:19.634Z,8.47
2023-03-04T10:12:48.794Z,8.72
2023-03-04T10:17:02.674Z,8.48
2023-03-04T10:21:44.473Z,8.98
2023-03-04T14:09:32.264Z,9.16
2023-03-04T14:16:02.350Z,8.94
2023-03-04T14:19:02.401Z,9.22
2023-03-04T14:29:07.836Z,9.65
2023-03-04T14:32:06.166Z,9.59
2023-03-04T14:38:48.260Z,10.38
2023-03-04T14:44:59.804Z,10.11
2023-03-04T14:52:17.785Z,9.74
2023-03-04T15:06:45.303Z,9.22
2023-03-04T15:13:25.399Z,9.18
2023-03-04T15:43:12.554Z,8.31
2023-03-04T17:55:29.752Z,5.61
2023-03-04T18:33:34.196Z,5.01
2023-03-04T18:56:22.975Z,4.87
2023-03-04T19:15:53.381Z,4.79
2023-03-04T19:26:20.526Z,4.50
2023-03-04T19:28:57.062Z,4.36
2023-03-04T19:31:25.434Z,4.27
2023-03-04T19:33:53.184Z,4.39
2023-03-04T19:36:20.862Z,4.53
2023-03-04T19:38:48.282Z,4.67
2023-03-04T19:41:17.332Z,4.51
2023-03-04T19:43:45.572Z,4.39
2023-03-04T19:46:13.664Z,4.15
2023-03-04T19:48:41.622Z,3.84
2023-03-04T19:51:35.343Z,3.64
2023-03-04T19:54:03.184Z,3.49
2023-03-04T19:56:30.440Z,3.39
2023-03-04T19:58:57.804Z,3.32
2023-03-04T20:01:29.755Z,3.27
2023-03-04T20:04:03.071Z,3.19
2023-03-04T20:06:31.449Z,3.18
2023-03-04T20:09:01.189Z,3.12
2023-03-04T20:11:32.583Z,3.07
2023-03-04T20:14:03.185Z,2.97
2023-03-04T20:16:34.893Z,2.91
2023-03-04T20:19:18.596Z,2.85
2023-03-04T20:22:09.080Z,2.86
2023-03-04T20:28:17.647Z,2.79
2023-03-04T20:35:12.586Z,2.59
2023-03-04T20:38:21.477Z,2.55
2023-03-04T22:06:45.770Z,1.85
2023-03-04T22:18:21.817Z,1.84
2023-03-04T22:25:17.031Z,1.83
2023-03-04T22:37:31.261Z,1.67
2023-03-04T22:40:16.293Z,1.69
2023-03-04T22:42:59.412Z,1.70
2023-03-04T22:45:29.941Z,1.70
2023-03-04T22:48:01.021Z,1.77
2023-03-04T22:50:29.210Z,1.79
2023-03-04T22:52:57.478Z,1.81
2023-03-04T22:55:25.183Z,1.82
2023-03-04T22:57:53.936Z,1.90
2023-03-04T23:00:25.482Z,1.89
2023-03-04T23:02:55.176Z,1.96
2023-03-04T23:05:22.835Z,1.96
2023-03-04T23:07:52.614Z,1.96
2023-03-04T23:10:24.302Z,1.98
2023-03-04T23:12:52.510Z,2.02
2023-03-04T23:15:20.024Z,2.09
2023-03-04T23:17:47.687Z,2.00
2023-03-04T23:20:18.996Z,2.00
2023-03-04T23:22:48.111Z,2.10
2023-03-04T23:25:16.723Z,2.20
2023-03-04T23:27:44.834Z,2.29
2023-03-04T23:30:16.385Z,2.18
2023-03-04T23:32:44.350Z,2.22
2023-03-04T23:35:12.325Z,2.25
2023-03-04T23:37:40.136Z,2.23
2023-03-04T23:40:09.273Z,2.18
2023-03-04T23:42:38.315Z,2.30
2023-03-04T23:45:07.234Z,2.32
2023-03-04T23:47:34.457Z,2.38
2023-03-04T23:50:06.422Z,2.43
2023-03-04T23:52:34.624Z,2.48
2023-03-04T23:55:02.389Z,2.52
2023-03-04T23:57:31.236Z,2.55
2023-03-04T23:59:58.385Z,2.56
